sensor_id;sensor_type;location;lat;lon;timestamp;temperature;humidity
20777;DHT22;10548;47.504;8.248;2023-08-07T00:02:11;12.50;99.90
20777;DHT22;10548;47.504;8.248;2023-08-07T00:04:38;12.40;99.90
20777;DHT22;10548;47.504;8.248;2023-08-07T00:07:05;12.30;99.90
20777;DHT22;10548;47.504;8.248;2023-08-07T00:09:32;12.30;99.90
20777;DHT22;10548;47.504;8.248;2023-08-07T00:11:59;12.60;99.90
20777;DHT22;10548;47.504;8.248;2023-08-07T00:14:26;12.60;99.90
20777;DHT22;10548;47.504;8.248;2023-08-07T00:16:53;12.60;99.90
20777;DHT22;10548;47.504;8.248;2023-08-07T00:19:21;12.60;99.90
20777;DHT22;10548;47.504;8.248;2023-08-07T00:21:48;12.50;99.90
20777;DHT22;10548;47.504;8.248;2023-08-07T00:24:15;12.60;99.90
20777;DHT22;10548;47.504;8.248;2023-08-07T00:26:42;12.50;99.90
20777;DHT22;10548;47.504;8.248;2023-08-07T00:29:09;12.60;99.90
20777;DHT22;10548;47.504;8.248;2023-08-07T00:31:36;12.70;99.90
20777;DHT22;10548;47.504;8.248;2023-08-07T00:34:03;12.60;99.90
20777;DHT22;10548;47.504;8.248;2023-08-07T00:36:31;12.70;99.90
20777;DHT22;10548;47.504;8.248;2023-08-07T00:39:02;12.80;99.90
20777;DHT22;10548;47.504;8.248;2023-08-07T00:41:30;12.90;99.90
20777;DHT22;10548;47.504;8.248;2023-08-07T00:43:57;12.80;99.90
20777;DHT22;10548;47.504;8.248;2023-08-07T00:46:24;12.80;99.90
20777;DHT22;10548;47.504;8.248;2023-08-07T00:48:53;12.80;99.90
20777;DHT22;10548;47.504;8.248;2023-08-07T00:51:21;12.90;99.90
20777;DHT22;10548;47.504;8.248;2023-08-07T00:53:50;12.70;99.90
20777;DHT22;10548;47.504;8.248;2023-08-07T00:56:18;12.70;99.90
20777;DHT22;10548;47.504;8.248;2023-08-07T00:58:45;12.70;99.90
20777;DHT22;10548;47.504;8.248;2023-08-07T01:01:13;12.60;99.90
20777;DHT22;10548;47.504;8.248;2023-08-07T01:03:40;12.50;99.90
20777;DHT22;10548;47.504;8.248;2023-08-07T01:06:07;12.40;99.90
20777;DHT22;10548;47.504;8.248;2023-08-07T01:08:35;12.40;99.90
20777;DHT22;10548;47.504;8.248;2023-08-07T01:11:36;12.40;99.90
20777;DHT22;10548;47.504;8.248;2023-08-07T01:17:27;12.50;99.90
20777;DHT22;10548;47.504;8.248;2023-08-07T01:19:55;12.40;99.90
20777;DHT22;10548;47.504;8.248;2023-08-07T01:22:24;12.40;99.90
20777;DHT22;10548;47.504;8.248;2023-08-07T01:24:51;12.50;99.90
20777;DHT22;10548;47.504;8.248;2023-08-07T01:27:35;12.40;99.90
20777;DHT22;10548;47.504;8.248;2023-08-07T01:30:35;12.50;99.90
20777;DHT22;10548;47.504;8.248;2023-08-07T01:34:04;12.50;99.90
20777;DHT22;10548;47.504;8.248;2023-08-07T01:36:30;12.20;99.90
20777;DHT22;10548;47.504;8.248;2023-08-07T01:38:58;12.20;99.90
20777;DHT22;10548;47.504;8.248;2023-08-07T01:41:27;12.30;99.90
20777;DHT22;10548;47.504;8.248;2023-08-07T01:43:55;12.50;99.90
20777;DHT22;10548;47.504;8.248;2023-08-07T01:46:22;12.30;99.90
20777;DHT22;10548;47.504;8.248;2023-08-07T01:48:49;12.40;99.90
20777;DHT22;10548;47.504;8.248;2023-08-07T01:51:16;12.20;99.90
20777;DHT22;10548;47.504;8.248;2023-08-07T01:53:43;12.20;99.90
20777;DHT22;10548;47.504;8.248;2023-08-07T01:56:10;12.20;99.90
20777;DHT22;10548;47.504;8.248;2023-08-07T01:58:37;12.50;99.90
20777;DHT22;10548;47.504;8.248;2023-08-07T02:01:04;12.40;99.90
20777;DHT22;10548;47.504;8.248;2023-08-07T02:03:32;12.30;99.90
20777;DHT22;10548;47.504;8.248;2023-08-07T02:05:59;12.20;99.90
20777;DHT22;10548;47.504;8.248;2023-08-07T02:08:28;12.10;99.90
20777;DHT22;10548;47.504;8.248;2023-08-07T02:10:55;12.10;99.90
20777;DHT22;10548;47.504;8.248;2023-08-07T02:13:23;12.30;99.90
20777;DHT22;10548;47.504;8.248;2023-08-07T02:15:50;12.40;99.90
20777;DHT22;10548;47.504;8.248;2023-08-07T02:18:17;12.30;99.90
20777;DHT22;10548;47.504;8.248;2023-08-07T02:20:44;12.40;99.90
20777;DHT22;10548;47.504;8.248;2023-08-07T02:23:12;12.40;99.90
20777;DHT22;10548;47.504;8.248;2023-08-07T02:25:39;12.50;99.90
20777;DHT22;10548;47.504;8.248;2023-08-07T02:28:07;12.40;99.90
20777;DHT22;10548;47.504;8.248;2023-08-07T02:30:34;12.20;99.90
20777;DHT22;10548;47.504;8.248;2023-08-07T02:33:01;12.10;99.90
20777;DHT22;10548;47.504;8.248;2023-08-07T02:35:29;12.20;99.90
20777;DHT22;10548;47.504;8.248;2023-08-07T02:37:56;12.10;99.90
20777;DHT22;10548;47.504;8.248;2023-08-07T02:40:24;12.20;99.90
20777;DHT22;10548;47.504;8.248;2023-08-07T02:42:51;12.10;99.90
20777;DHT22;10548;47.504;8.248;2023-08-07T02:45:18;12.10;99.90
20777;DHT22;10548;47.504;8.248;2023-08-07T02:47:45;12.00;99.90
20777;DHT22;10548;47.504;8.248;2023-08-07T02:50:13;12.00;99.90
20777;DHT22;10548;47.504;8.248;2023-08-07T02:52:40;12.00;99.90
20777;DHT22;10548;47.504;8.248;2023-08-07T02:55:09;12.20;99.90
20777;DHT22;10548;47.504;8.248;2023-08-07T02:57:36;12.10;99.90
20777;DHT22;10548;47.504;8.248;2023-08-07T03:00:04;12.00;99.90
20777;DHT22;10548;47.504;8.248;2023-08-07T03:02:31;12.00;99.90
20777;DHT22;10548;47.504;8.248;2023-08-07T03:04:58;12.10;99.90
20777;DHT22;10548;47.504;8.248;2023-08-07T03:07:26;12.20;99.90
20777;DHT22;10548;47.504;8.248;2023-08-07T03:09:53;12.20;99.90
20777;DHT22;10548;47.504;8.248;2023-08-07T03:12:20;12.30;99.90
20777;DHT22;10548;47.504;8.248;2023-08-07T03:14:48;12.30;99.90
20777;DHT22;10548;47.504;8.248;2023-08-07T03:17:15;12.30;99.90
20777;DHT22;10548;47.504;8.248;2023-08-07T03:19:43;12.10;99.90
20777;DHT22;10548;47.504;8.248;2023-08-07T03:22:12;12.20;99.90
20777;DHT22;10548;47.504;8.248;2023-08-07T03:24:39;12.20;99.90
20777;DHT22;10548;47.504;8.248;2023-08-07T03:27:06;12.40;99.90
20777;DHT22;10548;47.504;8.248;2023-08-07T03:29:34;12.40;99.90
20777;DHT22;10548;47.504;8.248;2023-08-07T03:32:01;12.20;99.90
20777;DHT22;10548;47.504;8.248;2023-08-07T03:34:28;12.10;99.90
20777;DHT22;10548;47.504;8.248;2023-08-07T03:36:55;12.00;99.90
20777;DHT22;10548;47.504;8.248;2023-08-07T03:39:23;11.90;99.90
20777;DHT22;10548;47.504;8.248;2023-08-07T03:41:51;11.80;99.90
20777;DHT22;10548;47.504;8.248;2023-08-07T03:44:18;11.70;99.90
20777;DHT22;10548;47.504;8.248;2023-08-07T03:46:46;11.70;99.90
20777;DHT22;10548;47.504;8.248;2023-08-07T03:49:14;11.60;99.90
20777;DHT22;10548;47.504;8.248;2023-08-07T03:51:41;11.60;99.90
20777;DHT22;10548;47.504;8.248;2023-08-07T03:54:08;11.50;99.90
20777;DHT22;10548;47.504;8.248;2023-08-07T03:56:35;11.50;99.90
20777;DHT22;10548;47.504;8.248;2023-08-07T03:59:05;11.40;99.90
20777;DHT22;10548;47.504;8.248;2023-08-07T04:01:34;11.20;99.90
20777;DHT22;10548;47.504;8.248;2023-08-07T04:04:01;11.20;99.90
20777;DHT22;10548;47.504;8.248;2023-08-07T04:06:29;11.20;99.90
20777;DHT22;10548;47.504;8.248;2023-08-07T04:08:57;11.10;99.90
20777;DHT22;10548;47.504;8.248;2023-08-07T04:11:24;11.30;99.90
20777;DHT22;10548;47.504;8.248;2023-08-07T04:13:51;11.20;99.90
20777;DHT22;10548;47.504;8.248;2023-08-07T04:16:18;11.10;99.90
20777;DHT22;10548;47.504;8.248;2023-08-07T04:18:45;11.10;99.90
20777;DHT22;10548;47.504;8.248;2023-08-07T04:21:13;11.20;99.90
20777;DHT22;10548;47.504;8.248;2023-08-07T04:23:40;11.30;99.90
20777;DHT22;10548;47.504;8.248;2023-08-07T04:26:09;11.40;99.90
20777;DHT22;10548;47.504;8.248;2023-08-07T04:28:36;11.50;99.90
20777;DHT22;10548;47.504;8.248;2023-08-07T04:31:03;11.50;99.90
20777;DHT22;10548;47.504;8.248;2023-08-07T04:33:30;11.50;99.90
20777;DHT22;10548;47.504;8.248;2023-08-07T04:35:58;11.40;99.90
20777;DHT22;10548;47.504;8.248;2023-08-07T04:38:25;11.40;99.90
20777;DHT22;10548;47.504;8.248;2023-08-07T04:40:52;11.50;99.90
20777;DHT22;10548;47.504;8.248;2023-08-07T04:43:20;11.50;99.90
20777;DHT22;10548;47.504;8.248;2023-08-07T04:45:47;11.50;99.90
20777;DHT22;10548;47.504;8.248;2023-08-07T04:48:15;11.50;99.90
20777;DHT22;10548;47.504;8.248;2023-08-07T04:50:42;11.50;99.90
20777;DHT22;10548;47.504;8.248;2023-08-07T04:53:09;11.60;99.90
20777;DHT22;10548;47.504;8.248;2023-08-07T04:55:36;11.70;99.90
20777;DHT22;10548;47.504;8.248;2023-08-07T04:58:03;11.70;99.90
20777;DHT22;10548;47.504;8.248;2023-08-07T05:00:30;11.70;99.90
20777;DHT22;10548;47.504;8.248;2023-08-07T05:02:58;11.70;99.90
20777;DHT22;10548;47.504;8.248;2023-08-07T05:05:25;11.70;99.90
20777;DHT22;10548;47.504;8.248;2023-08-07T05:07:54;11.70;99.90
20777;DHT22;10548;47.504;8.248;2023-08-07T05:10:21;11.70;99.90
20777;DHT22;10548;47.504;8.248;2023-08-07T05:12:49;11.70;99.90
20777;DHT22;10548;47.504;8.248;2023-08-07T05:15:25;11.70;99.90
20777;DHT22;10548;47.504;8.248;2023-08-07T05:17:52;11.60;99.90
20777;DHT22;10548;47.504;8.248;2023-08-07T05:20:20;11.70;99.90
20777;DHT22;10548;47.504;8.248;2023-08-07T05:22:47;11.70;99.90
20777;DHT22;10548;47.504;8.248;2023-08-07T05:25:15;11.80;99.90
20777;DHT22;10548;47.504;8.248;2023-08-07T05:27:43;11.80;99.90
20777;DHT22;10548;47.504;8.248;2023-08-07T05:30:11;11.80;99.90
20777;DHT22;10548;47.504;8.248;2023-08-07T05:32:39;11.90;99.90
20777;DHT22;10548;47.504;8.248;2023-08-07T05:35:07;11.90;99.90
20777;DHT22;10548;47.504;8.248;2023-08-07T05:37:35;11.90;99.90
20777;DHT22;10548;47.504;8.248;2023-08-07T05:40:02;12.00;99.90
20777;DHT22;10548;47.504;8.248;2023-08-07T05:42:30;12.10;99.90
20777;DHT22;10548;47.504;8.248;2023-08-07T05:44:58;12.00;99.90
20777;DHT22;10548;47.504;8.248;2023-08-07T05:47:25;12.00;99.90
20777;DHT22;10548;47.504;8.248;2023-08-07T05:49:52;12.00;99.90
20777;DHT22;10548;47.504;8.248;2023-08-07T05:52:19;12.00;99.90
20777;DHT22;10548;47.504;8.248;2023-08-07T05:54:47;12.00;99.90
20777;DHT22;10548;47.504;8.248;2023-08-07T05:57:14;12.20;99.90
20777;DHT22;10548;47.504;8.248;2023-08-07T05:59:41;12.20;99.90
20777;DHT22;10548;47.504;8.248;2023-08-07T06:02:09;12.20;99.90
20777;DHT22;10548;47.504;8.248;2023-08-07T06:04:39;12.20;99.90
20777;DHT22;10548;47.504;8.248;2023-08-07T06:07:06;12.40;99.90
20777;DHT22;10548;47.504;8.248;2023-08-07T06:09:34;12.40;99.90
20777;DHT22;10548;47.504;8.248;2023-08-07T06:12:02;12.50;99.90
20777;DHT22;10548;47.504;8.248;2023-08-07T06:14:29;12.50;99.90
20777;DHT22;10548;47.504;8.248;2023-08-07T06:16:57;12.50;99.90
20777;DHT22;10548;47.504;8.248;2023-08-07T06:19:25;12.70;99.90
20777;DHT22;10548;47.504;8.248;2023-08-07T06:21:59;12.70;99.90
20777;DHT22;10548;47.504;8.248;2023-08-07T06:24:27;13.10;99.90
20777;DHT22;10548;47.504;8.248;2023-08-07T06:26:54;13.20;99.90
20777;DHT22;10548;47.504;8.248;2023-08-07T06:29:21;13.40;99.90
20777;DHT22;10548;47.504;8.248;2023-08-07T06:31:48;13.70;99.90
20777;DHT22;10548;47.504;8.248;2023-08-07T06:34:15;14.00;99.90
20777;DHT22;10548;47.504;8.248;2023-08-07T06:36:42;14.20;99.90
20777;DHT22;10548;47.504;8.248;2023-08-07T06:39:10;14.20;99.90
20777;DHT22;10548;47.504;8.248;2023-08-07T06:41:37;14.10;99.90
20777;DHT22;10548;47.504;8.248;2023-08-07T06:44:05;13.90;99.90
20777;DHT22;10548;47.504;8.248;2023-08-07T06:46:32;13.90;99.90
20777;DHT22;10548;47.504;8.248;2023-08-07T06:48:59;14.00;99.90
20777;DHT22;10548;47.504;8.248;2023-08-07T06:51:26;13.90;99.90
20777;DHT22;10548;47.504;8.248;2023-08-07T06:53:53;14.30;99.90
20777;DHT22;10548;47.504;8.248;2023-08-07T06:56:20;14.60;99.90
20777;DHT22;10548;47.504;8.248;2023-08-07T06:58:47;14.50;99.90
20777;DHT22;10548;47.504;8.248;2023-08-07T07:01:15;14.70;99.90
20777;DHT22;10548;47.504;8.248;2023-08-07T07:03:42;14.40;99.90
20777;DHT22;10548;47.504;8.248;2023-08-07T07:30:51;14.50;99.90
20777;DHT22;10548;47.504;8.248;2023-08-07T07:35:46;14.20;99.90
20777;DHT22;10548;47.504;8.248;2023-08-07T07:38:13;14.00;99.90
20777;DHT22;10548;47.504;8.248;2023-08-07T07:40:40;13.80;99.90
20777;DHT22;10548;47.504;8.248;2023-08-07T07:43:08;13.50;99.90
20777;DHT22;10548;47.504;8.248;2023-08-07T07:45:35;13.30;99.90
20777;DHT22;10548;47.504;8.248;2023-08-07T07:48:03;13.10;99.90
20777;DHT22;10548;47.504;8.248;2023-08-07T07:50:30;12.80;99.90
20777;DHT22;10548;47.504;8.248;2023-08-07T07:52:58;12.50;99.90
20777;DHT22;10548;47.504;8.248;2023-08-07T07:55:25;12.40;99.90
20777;DHT22;10548;47.504;8.248;2023-08-07T07:57:53;12.30;99.90
20777;DHT22;10548;47.504;8.248;2023-08-07T08:00:21;12.30;99.90
20777;DHT22;10548;47.504;8.248;2023-08-07T08:02:49;12.40;99.90
20777;DHT22;10548;47.504;8.248;2023-08-07T08:05:17;12.50;99.90
20777;DHT22;10548;47.504;8.248;2023-08-07T08:07:44;12.70;99.90
20777;DHT22;10548;47.504;8.248;2023-08-07T08:10:11;12.80;99.90
20777;DHT22;10548;47.504;8.248;2023-08-07T08:12:40;13.10;99.90
20777;DHT22;10548;47.504;8.248;2023-08-07T08:15:08;13.30;99.90
20777;DHT22;10548;47.504;8.248;2023-08-07T08:17:35;13.60;99.90
20777;DHT22;10548;47.504;8.248;2023-08-07T08:20:02;13.30;99.90
20777;DHT22;10548;47.504;8.248;2023-08-07T08:22:29;13.20;99.90
20777;DHT22;10548;47.504;8.248;2023-08-07T08:24:56;13.30;99.90
20777;DHT22;10548;47.504;8.248;2023-08-07T08:27:23;13.40;99.90
20777;DHT22;10548;47.504;8.248;2023-08-07T08:29:52;13.40;99.90
20777;DHT22;10548;47.504;8.248;2023-08-07T08:32:19;13.40;99.90
20777;DHT22;10548;47.504;8.248;2023-08-07T08:34:46;13.60;99.90
20777;DHT22;10548;47.504;8.248;2023-08-07T08:37:16;13.50;99.90
20777;DHT22;10548;47.504;8.248;2023-08-07T08:39:43;13.70;99.90
20777;DHT22;10548;47.504;8.248;2023-08-07T08:42:11;13.70;99.90
20777;DHT22;10548;47.504;8.248;2023-08-07T08:44:46;13.80;99.90
20777;DHT22;10548;47.504;8.248;2023-08-07T08:47:16;14.20;99.90
20777;DHT22;10548;47.504;8.248;2023-08-07T08:49:47;13.90;99.90
20777;DHT22;10548;47.504;8.248;2023-08-07T08:52:16;14.10;99.90
20777;DHT22;10548;47.504;8.248;2023-08-07T08:54:44;14.10;99.90
20777;DHT22;10548;47.504;8.248;2023-08-07T08:57:11;14.50;99.90
20777;DHT22;10548;47.504;8.248;2023-08-07T08:59:42;14.80;99.90
20777;DHT22;10548;47.504;8.248;2023-08-07T09:02:10;14.80;99.90
20777;DHT22;10548;47.504;8.248;2023-08-07T09:04:37;15.20;99.90
20777;DHT22;10548;47.504;8.248;2023-08-07T09:07:05;15.10;99.90
20777;DHT22;10548;47.504;8.248;2023-08-07T09:09:32;14.70;99.90
20777;DHT22;10548;47.504;8.248;2023-08-07T09:12:00;14.90;99.90
20777;DHT22;10548;47.504;8.248;2023-08-07T09:14:29;15.10;99.90
20777;DHT22;10548;47.504;8.248;2023-08-07T09:17:01;15.00;99.90
20777;DHT22;10548;47.504;8.248;2023-08-07T09:19:29;14.90;99.90
20777;DHT22;10548;47.504;8.248;2023-08-07T09:21:56;14.60;99.90
20777;DHT22;10548;47.504;8.248;2023-08-07T09:24:23;14.70;99.90
20777;DHT22;10548;47.504;8.248;2023-08-07T09:26:51;14.90;99.90
20777;DHT22;10548;47.504;8.248;2023-08-07T09:29:21;15.00;99.90
20777;DHT22;10548;47.504;8.248;2023-08-07T09:31:49;15.30;99.90
20777;DHT22;10548;47.504;8.248;2023-08-07T09:34:20;15.70;99.90
20777;DHT22;10548;47.504;8.248;2023-08-07T09:36:47;16.00;99.90
20777;DHT22;10548;47.504;8.248;2023-08-07T09:39:14;15.90;99.90
20777;DHT22;10548;47.504;8.248;2023-08-07T09:41:41;16.00;99.90
20777;DHT22;10548;47.504;8.248;2023-08-07T09:44:10;15.80;99.90
20777;DHT22;10548;47.504;8.248;2023-08-07T09:46:43;15.80;99.90
20777;DHT22;10548;47.504;8.248;2023-08-07T09:49:11;16.40;99.90
20777;DHT22;10548;47.504;8.248;2023-08-07T09:51:45;16.20;99.90
20777;DHT22;10548;47.504;8.248;2023-08-07T09:54:13;16.10;99.90
20777;DHT22;10548;47.504;8.248;2023-08-07T09:56:40;15.80;99.90
20777;DHT22;10548;47.504;8.248;2023-08-07T09:59:08;15.80;99.90
20777;DHT22;10548;47.504;8.248;2023-08-07T10:01:38;16.20;99.90
20777;DHT22;10548;47.504;8.248;2023-08-07T10:04:10;16.30;99.90
20777;DHT22;10548;47.504;8.248;2023-08-07T10:06:45;17.20;99.90
20777;DHT22;10548;47.504;8.248;2023-08-07T10:09:13;16.60;99.90
20777;DHT22;10548;47.504;8.248;2023-08-07T10:11:41;16.80;99.90
20777;DHT22;10548;47.504;8.248;2023-08-07T10:14:09;16.90;99.90
20777;DHT22;10548;47.504;8.248;2023-08-07T10:16:37;17.10;99.90
20777;DHT22;10548;47.504;8.248;2023-08-07T10:19:07;17.00;99.80
20777;DHT22;10548;47.504;8.248;2023-08-07T10:21:45;16.70;99.90
20777;DHT22;10548;47.504;8.248;2023-08-07T10:24:13;16.80;99.90
20777;DHT22;10548;47.504;8.248;2023-08-07T10:26:44;17.00;99.90
20777;DHT22;10548;47.504;8.248;2023-08-07T10:29:14;16.90;99.90
20777;DHT22;10548;47.504;8.248;2023-08-07T10:31:43;17.70;99.90
20777;DHT22;10548;47.504;8.248;2023-08-07T10:34:11;17.30;99.90
20777;DHT22;10548;47.504;8.248;2023-08-07T10:36:40;17.00;97.80
20777;DHT22;10548;47.504;8.248;2023-08-07T10:39:08;17.00;99.00
20777;DHT22;10548;47.504;8.248;2023-08-07T10:44:24;17.30;97.30
20777;DHT22;10548;47.504;8.248;2023-08-07T10:46:56;17.70;95.60
20777;DHT22;10548;47.504;8.248;2023-08-07T10:52:14;17.40;96.50
20777;DHT22;10548;47.504;8.248;2023-08-07T10:54:49;16.80;98.00
20777;DHT22;10548;47.504;8.248;2023-08-07T10:57:18;16.90;99.80
20777;DHT22;10548;47.504;8.248;2023-08-07T11:00:03;16.70;97.70
20777;DHT22;10548;47.504;8.248;2023-08-07T11:05:06;16.80;98.40
20777;DHT22;10548;47.504;8.248;2023-08-07T11:07:33;16.80;96.10
20777;DHT22;10548;47.504;8.248;2023-08-07T11:10:01;16.50;96.40
20777;DHT22;10548;47.504;8.248;2023-08-07T11:12:28;16.40;98.70
20777;DHT22;10548;47.504;8.248;2023-08-07T11:14:56;16.30;97.70
20777;DHT22;10548;47.504;8.248;2023-08-07T11:17:28;17.50;99.90
20777;DHT22;10548;47.504;8.248;2023-08-07T11:19:56;17.40;95.90
20777;DHT22;10548;47.504;8.248;2023-08-07T11:22:23;17.50;96.60
20777;DHT22;10548;47.504;8.248;2023-08-07T11:24:51;17.90;97.00
20777;DHT22;10548;47.504;8.248;2023-08-07T11:27:21;17.40;95.00
20777;DHT22;10548;47.504;8.248;2023-08-07T11:29:48;17.90;94.80
20777;DHT22;10548;47.504;8.248;2023-08-07T11:32:16;18.30;95.30
20777;DHT22;10548;47.504;8.248;2023-08-07T11:34:50;17.90;92.20
20777;DHT22;10548;47.504;8.248;2023-08-07T11:37:18;18.50;95.60
20777;DHT22;10548;47.504;8.248;2023-08-07T11:39:45;19.30;94.90
20777;DHT22;10548;47.504;8.248;2023-08-07T11:42:13;18.80;93.00
20777;DHT22;10548;47.504;8.248;2023-08-07T11:44:41;18.00;92.80
20777;DHT22;10548;47.504;8.248;2023-08-07T11:47:10;18.30;93.10
20777;DHT22;10548;47.504;8.248;2023-08-07T11:49:37;18.50;93.30
20777;DHT22;10548;47.504;8.248;2023-08-07T11:52:05;18.50;90.90
20777;DHT22;10548;47.504;8.248;2023-08-07T11:54:40;19.10;91.50
20777;DHT22;10548;47.504;8.248;2023-08-07T11:59:48;18.60;87.30
20777;DHT22;10548;47.504;8.248;2023-08-07T12:02:15;18.70;91.50
20777;DHT22;10548;47.504;8.248;2023-08-07T12:04:43;18.50;93.00
20777;DHT22;10548;47.504;8.248;2023-08-07T12:09:41;16.90;91.40
20777;DHT22;10548;47.504;8.248;2023-08-07T12:12:10;16.10;92.60
20777;DHT22;10548;47.504;8.248;2023-08-07T12:14:38;16.20;94.90
20777;DHT22;10548;47.504;8.248;2023-08-07T12:17:09;16.50;97.80
20777;DHT22;10548;47.504;8.248;2023-08-07T12:19:37;16.50;98.30
20777;DHT22;10548;47.504;8.248;2023-08-07T12:22:09;17.40;97.60
20777;DHT22;10548;47.504;8.248;2023-08-07T12:24:36;17.50;94.70
20777;DHT22;10548;47.504;8.248;2023-08-07T12:27:05;17.50;95.20
20777;DHT22;10548;47.504;8.248;2023-08-07T12:29:32;17.40;97.80
20777;DHT22;10548;47.504;8.248;2023-08-07T12:31:59;18.40;96.70
20777;DHT22;10548;47.504;8.248;2023-08-07T12:34:28;18.10;94.80
20777;DHT22;10548;47.504;8.248;2023-08-07T12:36:58;17.80;93.30
20777;DHT22;10548;47.504;8.248;2023-08-07T12:43:39;19.10;95.20
20777;DHT22;10548;47.504;8.248;2023-08-07T12:46:06;17.90;91.80
20777;DHT22;10548;47.504;8.248;2023-08-07T12:48:36;17.90;94.00
20777;DHT22;10548;47.504;8.248;2023-08-07T12:51:03;19.60;90.80
20777;DHT22;10548;47.504;8.248;2023-08-07T12:53:30;19.10;85.10
20777;DHT22;10548;47.504;8.248;2023-08-07T12:55:58;19.20;91.10
20777;DHT22;10548;47.504;8.248;2023-08-07T12:58:25;19.30;88.00
20777;DHT22;10548;47.504;8.248;2023-08-07T13:00:56;19.50;96.30
20777;DHT22;10548;47.504;8.248;2023-08-07T13:03:24;19.00;89.90
20777;DHT22;10548;47.504;8.248;2023-08-07T13:05:51;18.10;91.90
20777;DHT22;10548;47.504;8.248;2023-08-07T13:08:18;17.90;93.00
20777;DHT22;10548;47.504;8.248;2023-08-07T13:10:45;17.50;94.20
20777;DHT22;10548;47.504;8.248;2023-08-07T13:13:16;17.30;92.80
20777;DHT22;10548;47.504;8.248;2023-08-07T13:15:43;17.30;95.30
20777;DHT22;10548;47.504;8.248;2023-08-07T13:18:10;17.60;95.90
20777;DHT22;10548;47.504;8.248;2023-08-07T13:20:37;18.30;92.70
20777;DHT22;10548;47.504;8.248;2023-08-07T13:23:05;18.50;93.90
20777;DHT22;10548;47.504;8.248;2023-08-07T13:25:33;19.60;91.40
20777;DHT22;10548;47.504;8.248;2023-08-07T13:28:01;19.30;86.80
20777;DHT22;10548;47.504;8.248;2023-08-07T13:30:31;19.10;87.70
20777;DHT22;10548;47.504;8.248;2023-08-07T13:33:06;19.10;88.40
20777;DHT22;10548;47.504;8.248;2023-08-07T13:35:33;18.90;86.80
20777;DHT22;10548;47.504;8.248;2023-08-07T13:38:00;18.80;87.80
20777;DHT22;10548;47.504;8.248;2023-08-07T13:40:32;18.40;89.70
20777;DHT22;10548;47.504;8.248;2023-08-07T13:42:59;18.20;89.70
20777;DHT22;10548;47.504;8.248;2023-08-07T13:45:29;18.30;89.40
20777;DHT22;10548;47.504;8.248;2023-08-07T13:47:57;18.00;90.00
20777;DHT22;10548;47.504;8.248;2023-08-07T13:50:24;18.30;90.10
20777;DHT22;10548;47.504;8.248;2023-08-07T13:52:51;18.30;88.10
20777;DHT22;10548;47.504;8.248;2023-08-07T13:55:34;17.90;92.20
20777;DHT22;10548;47.504;8.248;2023-08-07T13:58:01;17.60;95.50
20777;DHT22;10548;47.504;8.248;2023-08-07T14:00:28;17.60;95.10
20777;DHT22;10548;47.504;8.248;2023-08-07T14:02:55;17.30;95.10
20777;DHT22;10548;47.504;8.248;2023-08-07T14:05:22;17.50;97.00
20777;DHT22;10548;47.504;8.248;2023-08-07T14:07:50;18.80;96.90
20777;DHT22;10548;47.504;8.248;2023-08-07T14:10:17;18.50;92.30
20777;DHT22;10548;47.504;8.248;2023-08-07T14:12:53;18.40;93.50
20777;DHT22;10548;47.504;8.248;2023-08-07T14:15:20;18.40;91.20
20777;DHT22;10548;47.504;8.248;2023-08-07T14:17:47;18.30;91.90
20777;DHT22;10548;47.504;8.248;2023-08-07T14:20:14;17.90;91.50
20777;DHT22;10548;47.504;8.248;2023-08-07T14:22:41;18.30;90.30
20777;DHT22;10548;47.504;8.248;2023-08-07T14:25:09;18.90;77.90
20777;DHT22;10548;47.504;8.248;2023-08-07T14:27:36;19.60;80.60
20777;DHT22;10548;47.504;8.248;2023-08-07T14:30:03;19.20;83.80
20777;DHT22;10548;47.504;8.248;2023-08-07T14:32:31;19.00;80.60
20777;DHT22;10548;47.504;8.248;2023-08-07T14:34:58;19.10;74.70
20777;DHT22;10548;47.504;8.248;2023-08-07T14:37:25;19.10;79.10
20777;DHT22;10548;47.504;8.248;2023-08-07T14:39:52;19.10;72.30
20777;DHT22;10548;47.504;8.248;2023-08-07T14:42:19;19.30;70.40
20777;DHT22;10548;47.504;8.248;2023-08-07T14:44:46;19.50;72.40
20777;DHT22;10548;47.504;8.248;2023-08-07T14:47:13;19.10;72.60
20777;DHT22;10548;47.504;8.248;2023-08-07T14:54:36;18.30;77.10
20777;DHT22;10548;47.504;8.248;2023-08-07T14:57:03;17.90;78.80
20777;DHT22;10548;47.504;8.248;2023-08-07T14:59:31;17.90;76.70
20777;DHT22;10548;47.504;8.248;2023-08-07T15:01:58;17.80;78.30
20777;DHT22;10548;47.504;8.248;2023-08-07T15:04:25;17.00;97.30
20777;DHT22;10548;47.504;8.248;2023-08-07T15:06:53;16.50;99.90
20777;DHT22;10548;47.504;8.248;2023-08-07T15:09:20;16.00;99.90
20777;DHT22;10548;47.504;8.248;2023-08-07T15:11:47;15.90;99.90
20777;DHT22;10548;47.504;8.248;2023-08-07T15:14:14;15.90;99.90
20777;DHT22;10548;47.504;8.248;2023-08-07T15:16:41;15.90;99.90
20777;DHT22;10548;47.504;8.248;2023-08-07T15:19:09;16.10;99.90
20777;DHT22;10548;47.504;8.248;2023-08-07T15:21:36;16.40;99.90
20777;DHT22;10548;47.504;8.248;2023-08-07T15:24:03;16.50;99.90
20777;DHT22;10548;47.504;8.248;2023-08-07T15:26:31;16.70;99.90
20777;DHT22;10548;47.504;8.248;2023-08-07T15:28:58;16.90;99.90
20777;DHT22;10548;47.504;8.248;2023-08-07T15:31:25;17.40;99.90
20777;DHT22;10548;47.504;8.248;2023-08-07T15:33:53;17.00;99.90
20777;DHT22;10548;47.504;8.248;2023-08-07T15:36:20;17.00;99.90
20777;DHT22;10548;47.504;8.248;2023-08-07T15:38:47;17.20;99.90
20777;DHT22;10548;47.504;8.248;2023-08-07T15:41:14;17.00;99.90
20777;DHT22;10548;47.504;8.248;2023-08-07T15:43:41;16.90;99.90
20777;DHT22;10548;47.504;8.248;2023-08-07T15:46:08;17.10;99.90
20777;DHT22;10548;47.504;8.248;2023-08-07T15:48:35;16.90;99.90
20777;DHT22;10548;47.504;8.248;2023-08-07T15:51:02;16.80;99.90
20777;DHT22;10548;47.504;8.248;2023-08-07T15:53:30;16.90;99.90
20777;DHT22;10548;47.504;8.248;2023-08-07T15:55:57;17.10;99.90
20777;DHT22;10548;47.504;8.248;2023-08-07T15:58:24;16.90;99.90
20777;DHT22;10548;47.504;8.248;2023-08-07T16:00:51;17.10;99.90
20777;DHT22;10548;47.504;8.248;2023-08-07T16:03:19;17.40;99.90
20777;DHT22;10548;47.504;8.248;2023-08-07T16:05:49;18.10;99.90
20777;DHT22;10548;47.504;8.248;2023-08-07T16:08:16;18.50;99.30
20777;DHT22;10548;47.504;8.248;2023-08-07T16:10:43;19.90;96.80
20777;DHT22;10548;47.504;8.248;2023-08-07T16:13:10;19.20;99.90
20777;DHT22;10548;47.504;8.248;2023-08-07T16:15:37;18.30;99.50
20777;DHT22;10548;47.504;8.248;2023-08-07T16:18:04;18.60;99.10
20777;DHT22;10548;47.504;8.248;2023-08-07T16:20:32;18.00;96.20
20777;DHT22;10548;47.504;8.248;2023-08-07T16:22:59;17.70;96.70
20777;DHT22;10548;47.504;8.248;2023-08-07T16:25:26;17.80;97.30
20777;DHT22;10548;47.504;8.248;2023-08-07T16:27:53;17.30;97.90
20777;DHT22;10548;47.504;8.248;2023-08-07T16:30:20;17.60;99.40